Time;durP1;ratioP1;P1;durP2;ratioP2;P2;SDS_P1;SDS_P2;PMS_P1;PMS_P2;Temp;Humidity;BMP_temperature;BMP_pressure;BME280_temperature;BME280_humidity;BME280_pressure;Samples;Min_cycle;Max_cycle;Signal;HPM_P1;HPM_P2
2022/05/22 00:00:52;;;;;;;;;9.00;7.20;;;;;23.99;41.14;99212.50;4991298;28;8942;-73
2022/05/22 00:03:21;;;;;;;;;5.60;5.60;;;;;24.04;41.65;99207.72;4990771;28;8928;-74
2022/05/22 00:05:50;;;;;;;;;5.40;5.40;;;;;24.15;42.51;99204.41;4972529;28;9022;-74
2022/05/22 00:08:18;;;;;;;;;6.20;6.20;;;;;24.26;42.97;99209.94;4972414;28;8880;-73
2022/05/22 00:10:48;;;;;;;;;5.80;5.80;;;;;24.27;43.71;99206.31;4989250;28;8853;-72
2022/05/22 00:13:17;;;;;;;;;6.40;6.40;;;;;24.32;43.80;99214.88;4972474;28;9745;-74
2022/05/22 00:18:29;;;;;;;;;6.60;6.60;;;;;24.34;43.78;99212.09;4990319;28;8896;-73
2022/05/22 00:20:57;;;;;;;;;8.00;5.40;;;;;24.36;44.38;99217.34;4990285;28;8885;-74
2022/05/22 00:23:28;;;;;;;;;6.20;6.20;;;;;24.37;43.53;99197.75;4990603;28;8845;-74
2022/05/22 00:25:58;;;;;;;;;6.40;6.40;;;;;24.40;43.88;99208.19;4990646;28;8962;-73
2022/05/22 00:28:27;;;;;;;;;6.60;6.60;;;;;24.43;45.25;99211.53;4956754;28;8885;-74
2022/05/22 00:30:56;;;;;;;;;8.60;7.00;;;;;24.46;44.93;99215.81;5005232;28;8840;-73
2022/05/22 00:33:24;;;;;;;;;6.60;6.60;;;;;24.38;45.26;99210.97;4998268;28;8954;-74
2022/05/22 00:35:53;;;;;;;;;8.20;7.60;;;;;24.35;45.29;99202.28;4955738;28;8945;-73
2022/05/22 00:38:22;;;;;;;;;8.00;7.40;;;;;24.23;44.87;99201.25;4971173;28;8865;-74
2022/05/22 00:40:50;;;;;;;;;8.80;8.40;;;;;24.13;45.52;99204.50;4971324;28;8876;-74
2022/05/22 00:43:29;;;;;;;;;6.80;6.80;;;;;24.15;45.13;99206.22;4971298;28;8888;-72
2022/05/22 00:46:00;;;;;;;;;5.40;5.40;;;;;24.10;45.36;99217.16;4948662;28;8857;-76
2022/05/22 00:48:29;;;;;;;;;6.80;6.80;;;;;24.09;45.66;99216.31;4917064;28;8872;-73
2022/05/22 00:51:02;;;;;;;;;7.60;6.60;;;;;24.05;46.00;99219.25;4933952;28;8853;-74
2022/05/22 00:53:37;;;;;;;;;8.00;7.20;;;;;24.03;46.77;99219.34;4949348;28;8981;-74
2022/05/22 00:56:09;;;;;;;;;5.40;5.40;;;;;24.02;48.20;99219.44;4917343;28;8849;-74
2022/05/22 00:58:40;;;;;;;;;7.60;7.60;;;;;23.96;48.24;99220.66;4949045;28;8845;-74
2022/05/22 01:01:09;;;;;;;;;9.00;9.00;;;;;23.93;47.92;99212.84;4932949;28;8881;-76
2022/05/22 01:03:39;;;;;;;;;8.80;7.20;;;;;23.85;47.82;99207.16;4961930;28;8840;-73
2022/05/22 01:06:09;;;;;;;;;7.80;6.80;;;;;23.80;47.40;99207.44;5008287;28;9600;-73
2022/05/22 01:08:39;;;;;;;;;7.00;7.00;;;;;23.81;47.14;99198.50;5024488;28;8871;-74
2022/05/22 01:11:12;;;;;;;;;6.00;5.60;;;;;23.81;47.23;99198.50;5024734;28;8920;-74
2022/05/22 01:13:46;;;;;;;;;4.60;4.60;;;;;23.70;46.62;99191.09;5009493;28;8894;-73
2022/05/22 01:16:15;;;;;;;;;7.20;7.20;;;;;23.67;47.00;99199.31;5024497;28;8902;-73
2022/05/22 01:18:46;;;;;;;;;8.40;8.40;;;;;23.69;46.24;99189.41;5013821;28;8958;-73
2022/05/22 01:21:19;;;;;;;;;6.00;6.00;;;;;23.73;45.66;99208.72;4988006;28;8849;-72
2022/05/22 01:23:50;;;;;;;;;5.80;5.80;;;;;23.77;46.25;99206.75;4988118;28;8865;-75
2022/05/22 01:26:26;;;;;;;;;7.80;7.80;;;;;23.77;45.82;99212.06;4989171;28;8865;-73
2022/05/22 01:29:07;;;;;;;;;6.60;6.60;;;;;23.79;46.33;99210.19;4988001;28;8983;-75
2022/05/22 01:31:36;;;;;;;;;7.20;7.20;;;;;23.81;47.07;99216.28;4989311;28;9579;-74
2022/05/22 01:34:06;;;;;;;;;6.80;6.80;;;;;23.83;47.74;99217.88;4971363;28;8857;-73
2022/05/22 01:36:34;;;;;;;;;6.00;6.00;;;;;23.82;50.35;99218.84;4979447;28;8865;-74
2022/05/22 01:39:05;;;;;;;;;9.20;9.00;;;;;23.80;51.94;99219.88;5021080;28;8884;-74
2022/05/22 01:41:51;;;;;;;;;9.40;8.40;;;;;23.71;52.73;99229.25;4998592;28;8850;-74
2022/05/22 01:44:21;;;;;;;;;7.80;7.80;;;;;23.66;53.25;99237.50;4941107;28;8858;-73
2022/05/22 01:46:50;;;;;;;;;8.00;8.00;;;;;23.58;53.49;99241.59;5004809;28;8889;-73
2022/05/22 01:49:19;;;;;;;;;8.40;7.00;;;;;23.53;53.91;99250.72;5004274;28;8980;-71
2022/05/22 01:51:48;;;;;;;;;7.40;7.00;;;;;23.49;54.52;99254.47;4993590;28;8838;-75
2022/05/22 01:54:17;;;;;;;;;8.60;8.60;;;;;23.44;54.73;99239.72;4996130;28;8835;-74
2022/05/22 01:56:46;;;;;;;;;9.20;8.40;;;;;23.41;55.01;99245.25;4994653;28;8863;-75
2022/05/22 01:59:16;;;;;;;;;9.80;8.80;;;;;23.27;54.91;99241.59;4994736;28;8854;-73
2022/05/22 02:01:52;;;;;;;;;8.60;8.40;;;;;23.24;55.50;99232.91;4994455;28;8854;-75
2022/05/22 02:04:21;;;;;;;;;10.60;7.60;;;;;22.73;56.44;99235.75;5010544;28;8861;-75
2022/05/22 02:09:39;;;;;;;;;7.80;7.80;;;;;22.28;57.54;99230.19;4994494;28;8857;-73
2022/05/22 02:12:09;;;;;;;;;8.80;8.80;;;;;22.25;58.29;99238.34;4974755;28;8862;-74
2022/05/22 02:14:37;;;;;;;;;9.80;9.40;;;;;22.34;58.40;99231.66;4992817;28;8854;-73
2022/05/22 02:17:13;;;;;;;;;11.00;10.20;;;;;22.32;57.61;99225.59;4976554;28;8913;-74
2022/05/22 02:19:50;;;;;;;;;11.40;9.60;;;;;22.35;57.24;99226.28;4976911;28;8975;-74
2022/05/22 02:22:40;;;;;;;;;8.40;8.40;;;;;22.40;56.97;99228.69;4960598;28;8897;-75
2022/05/22 02:25:12;;;;;;;;;11.60;11.60;;;;;22.43;57.52;99227.66;4992857;28;9625;-73
2022/05/22 02:27:42;;;;;;;;;10.40;9.60;;;;;22.44;58.18;99224.94;4960329;28;8881;-75
2022/05/22 02:30:15;;;;;;;;;9.00;9.00;;;;;22.43;58.20;99231.19;4976539;28;8889;-75
2022/05/22 02:32:44;;;;;;;;;7.40;7.40;;;;;22.39;57.56;99229.63;4992813;28;8846;-72
2022/05/22 02:35:14;;;;;;;;;11.60;10.80;;;;;22.41;57.06;99233.06;4929883;28;8866;-74
2022/05/22 02:37:43;;;;;;;;;9.40;9.40;;;;;22.42;56.63;99229.47;4996014;28;8870;-73
2022/05/22 02:40:31;;;;;;;;;9.80;9.80;;;;;22.43;56.66;99230.31;4997462;28;9064;-75
2022/05/22 02:43:01;;;;;;;;;9.40;9.20;;;;;22.42;56.97;99232.13;4980263;28;8889;-76
2022/05/22 02:45:33;;;;;;;;;10.80;9.80;;;;;22.36;56.39;99228.00;4982072;28;9095;-73
2022/05/22 02:48:09;;;;;;;;;9.80;8.60;;;;;22.37;56.30;99232.38;5006668;28;8879;-73
2022/05/22 02:50:42;;;;;;;;;5.60;5.60;;;;;22.43;57.85;99235.63;4976082;28;8968;-73
2022/05/22 02:53:12;;;;;;;;;7.80;7.40;;;;;22.44;58.09;99226.72;5011016;28;8856;-74
2022/05/22 02:56:09;;;;;;;;;9.40;9.40;;;;;22.45;56.78;99231.94;4980240;28;8946;-73
2022/05/22 02:58:55;;;;;;;;;9.60;9.60;;;;;22.43;57.83;99239.16;4951926;28;8860;-74
2022/05/22 03:01:24;;;;;;;;;9.20;9.20;;;;;22.39;57.46;99233.13;4992263;28;8872;-72
2022/05/22 03:03:53;;;;;;;;;7.20;7.20;;;;;22.43;56.19;99233.84;4989804;28;8841;-71
2022/05/22 03:06:40;;;;;;;;;11.40;9.00;;;;;22.44;55.84;99224.06;4942584;28;8868;-73
2022/05/22 03:09:12;;;;;;;;;7.60;7.60;;;;;22.46;55.26;99231.03;4950141;28;8877;-73
2022/05/22 03:11:46;;;;;;;;;8.40;7.20;;;;;22.49;56.08;99228.16;4958429;28;8879;-72
2022/05/22 03:14:17;;;;;;;;;13.60;11.40;;;;;22.50;55.36;99232.56;4989709;28;8844;-73
2022/05/22 03:16:46;;;;;;;;;9.00;8.40;;;;;22.52;56.06;99229.81;4989715;28;8895;-74
2022/05/22 03:19:19;;;;;;;;;8.80;8.40;;;;;22.56;56.69;99228.72;4950276;28;8853;-73
2022/05/22 03:21:51;;;;;;;;;9.60;9.60;;;;;22.58;55.95;99235.66;4941498;28;8907;-75
2022/05/22 03:24:19;;;;;;;;;8.60;8.40;;;;;22.60;56.93;99232.06;4912312;29;8909;-75
2022/05/22 03:26:53;;;;;;;;;8.60;8.60;;;;;22.63;56.44;99234.53;4876605;29;8935;-73
2022/05/22 03:29:23;;;;;;;;;9.40;9.40;;;;;22.63;57.02;99247.81;4912203;29;9084;-76
2022/05/22 03:31:56;;;;;;;;;14.80;13.80;;;;;22.61;57.70;99247.03;4927857;29;8914;-72
2022/05/22 03:34:25;;;;;;;;;74.00;63.75;;;;;22.57;57.25;99241.03;4963302;28;9029;-74
2022/05/22 03:36:58;;;;;;;;;55.75;45.75;;;;;22.54;56.98;99250.06;4966071;28;10215;-72
2022/05/22 03:39:27;;;;;;;;;16.00;12.60;;;;;22.27;56.55;99260.38;4950019;28;8902;-71
2022/05/22 03:42:04;;;;;;;;;12.60;11.40;;;;;21.56;60.93;99271.09;4975670;28;8847;-72
2022/05/22 03:44:35;;;;;;;;;9.00;9.00;;;;;21.37;60.08;99277.28;4965531;28;8903;-75
2022/05/22 03:47:05;;;;;;;;;13.00;12.60;;;;;21.61;59.80;99282.34;4918311;28;8883;-73
2022/05/22 03:49:43;;;;;;;;;12.20;11.60;;;;;21.77;60.31;99287.72;4933990;28;8867;-72
2022/05/22 03:52:11;;;;;;;;;11.00;11.00;;;;;21.95;59.99;99281.47;4936960;28;9649;-73
2022/05/22 03:54:41;;;;;;;;;11.00;10.40;;;;;22.07;58.64;99272.00;4953049;28;9013;-73
2022/05/22 03:57:14;;;;;;;;;12.00;11.20;;;;;22.22;58.44;99283.63;4973153;28;9652;-72
2022/05/22 03:59:43;;;;;;;;;9.40;9.40;;;;;22.28;58.12;99275.38;4991041;28;8845;-73
2022/05/22 04:02:13;;;;;;;;;9.80;8.60;;;;;22.40;58.47;99271.22;4989547;28;8857;-74
2022/05/22 04:04:44;;;;;;;;;9.80;9.80;;;;;22.47;58.69;99275.22;4989726;28;9689;-75
2022/05/22 04:07:22;;;;;;;;;10.00;9.20;;;;;22.57;58.45;99273.81;4944471;28;8853;-72
2022/05/22 04:09:55;;;;;;;;;13.40;12.40;;;;;22.67;58.05;99286.59;4989538;28;8892;-75
2022/05/22 04:12:35;;;;;;;;;13.60;10.80;;;;;22.71;57.88;99289.00;4989270;28;8856;-72
2022/05/22 04:15:07;;;;;;;;;23.50;21.75;;;;;22.68;58.54;99286.50;4956941;28;8879;-73
2022/05/22 04:17:36;;;;;;;;;45.50;38.75;;;;;22.77;58.58;99282.47;4970804;28;8851;-73
2022/05/22 04:20:18;;;;;;;;;14.00;13.40;;;;;22.86;58.79;99289.09;4994252;28;8908;-74
2022/05/22 04:25:34;;;;;;;;;11.00;11.00;;;;;22.98;58.19;99294.59;4981902;28;8854;-75
2022/05/22 04:28:05;;;;;;;;;12.80;10.60;;;;;23.03;58.26;99297.03;5009386;28;8955;-74
2022/05/22 04:30:34;;;;;;;;;13.60;11.60;;;;;23.07;58.21;99295.06;5009387;28;8878;-73
2022/05/22 04:33:08;;;;;;;;;10.40;10.00;;;;;23.09;57.67;99301.16;5025929;28;8845;-73
2022/05/22 04:35:37;;;;;;;;;13.40;11.80;;;;;22.94;57.20;99301.03;4993389;28;8851;-73
2022/05/22 04:38:06;;;;;;;;;11.00;11.00;;;;;22.96;57.76;99301.78;5009017;28;9273;-74
2022/05/22 04:40:36;;;;;;;;;10.20;10.20;;;;;22.91;57.74;99301.22;5025560;28;8850;-72
2022/05/22 04:43:06;;;;;;;;;10.00;9.80;;;;;22.89;57.10;99300.44;5025506;28;9523;-73
2022/05/22 04:45:35;;;;;;;;;9.40;9.00;;;;;22.94;57.57;99310.81;5009167;28;8858;-72
2022/05/22 04:48:18;;;;;;;;;11.60;10.00;;;;;23.00;57.61;99310.47;5009421;28;8898;-72
2022/05/22 04:50:57;;;;;;;;;14.60;13.40;;;;;23.00;58.20;99307.78;4971976;28;8969;-73
2022/05/22 04:53:45;;;;;;;;;15.20;14.00;;;;;23.09;58.11;99312.63;4988134;28;8865;-73
2022/05/22 04:56:27;;;;;;;;;12.60;12.40;;;;;23.07;58.52;99309.22;4971810;28;8856;-75
2022/05/22 04:59:02;;;;;;;;;20.00;18.75;;;;;23.04;58.41;99314.69;4986075;28;8961;-73
2022/05/22 05:01:31;;;;;;;;;20.00;17.00;;;;;23.03;58.82;99307.66;4955364;28;8876;-75
2022/05/22 05:04:26;;;;;;;;;17.25;17.25;;;;;23.07;58.43;99297.72;4986502;28;8881;-75
2022/05/22 05:07:17;;;;;;;;;16.40;15.20;;;;;22.96;58.50;99306.25;4929906;28;8864;-72
2022/05/22 05:09:46;;;;;;;;;13.20;13.20;;;;;22.98;58.88;99297.25;4987172;28;8908;-72
2022/05/22 05:12:23;;;;;;;;;20.50;17.00;;;;;23.05;58.07;99289.81;4987132;28;8864;-73
2022/05/22 05:14:53;;;;;;;;;41.50;33.50;;;;;22.88;58.68;99289.88;4938920;28;8860;-73
2022/05/22 05:17:22;;;;;;;;;23.50;21.25;;;;;22.65;59.87;99304.44;4971413;28;8864;-75
2022/05/22 05:19:52;;;;;;;;;16.20;15.60;;;;;22.60;60.28;99310.00;4970776;28;9634;-73
2022/05/22 05:22:20;;;;;;;;;13.20;13.20;;;;;22.70;60.31;99303.25;4988595;28;8891;-73
2022/05/22 05:25:00;;;;;;;;;11.20;10.80;;;;;22.84;60.20;99306.94;4943309;28;9012;-74
2022/05/22 05:27:33;;;;;;;;;11.60;11.60;;;;;23.10;60.11;99303.72;4989849;28;8875;-72
2022/05/22 05:30:19;;;;;;;;;12.40;12.00;;;;;23.28;58.96;99312.47;4988378;28;8872;-75
2022/05/22 05:32:55;;;;;;;;;10.80;10.80;;;;;23.44;58.44;99303.59;4988205;28;8857;-77
2022/05/22 05:35:42;;;;;;;;;13.00;12.20;;;;;23.06;59.09;99311.94;4989283;28;8848;-73
2022/05/22 05:38:17;;;;;;;;;64.67;51.67;;;;;23.14;59.02;99310.59;5004488;28;8860;-72
2022/05/22 05:41:05;;;;;;;;;26.00;25.50;;;;;23.16;58.75;99307.84;4987887;28;9270;-74
2022/05/22 05:43:33;;;;;;;;;18.20;16.20;;;;;23.20;59.16;99306.72;5004489;28;8884;-75
2022/05/22 05:46:04;;;;;;;;;12.80;12.80;;;;;23.31;58.98;99301.66;4988446;28;8856;-73
2022/05/22 05:48:44;;;;;;;;;12.20;12.20;;;;;23.44;58.22;99306.25;5004391;28;9019;-72
2022/05/22 05:51:14;;;;;;;;;11.40;11.00;;;;;23.33;58.19;99304.22;4988313;28;8895;-75
2022/05/22 05:53:50;;;;;;;;;11.80;11.80;;;;;23.55;57.15;99302.06;4990826;28;8889;-73
2022/05/22 05:56:44;;;;;;;;;19.25;18.00;;;;;23.59;57.07;99307.19;4962103;28;8888;-73
2022/05/22 05:59:48;;;;;;;;;16.40;15.20;;;;;23.80;56.25;99305.09;4967734;28;8906;-74
2022/05/22 06:02:24;;;;;;;;;15.20;14.00;;;;;23.88;55.48;99313.50;4967451;28;8866;-74
2022/05/22 06:04:53;;;;;;;;;13.20;12.60;;;;;24.01;54.80;99322.47;4967446;28;8862;-74
2022/05/22 06:07:22;;;;;;;;;13.60;12.80;;;;;23.52;55.92;99326.19;4951431;28;8925;-73
2022/05/22 06:09:50;;;;;;;;;8.60;8.60;;;;;22.39;59.11;99327.94;4951700;28;8863;-73
2022/05/22 06:12:30;;;;;;;;;8.00;8.00;;;;;22.06;60.56;99325.19;4951465;28;8854;-77
2022/05/22 06:15:06;;;;;;;;;10.20;10.20;;;;;21.84;62.26;99321.00;4951434;28;9136;-76
2022/05/22 06:17:39;;;;;;;;;9.40;8.00;;;;;21.73;61.73;99321.53;4951611;28;9114;-75
2022/05/22 06:20:14;;;;;;;;;15.00;13.80;;;;;21.72;63.07;99317.16;4950992;28;8866;-76
2022/05/22 06:22:46;;;;;;;;;14.40;13.60;;;;;21.92;62.42;99315.28;4950735;28;9624;-74
2022/05/22 06:25:35;;;;;;;;;9.20;9.20;;;;;22.00;62.16;99313.97;4890600;29;8883;-75
2022/05/22 06:28:22;;;;;;;;;8.60;8.60;;;;;22.32;60.84;99310.59;4890586;29;9961;-74
2022/05/22 06:31:14;;;;;;;;;14.20;12.60;;;;;22.48;59.87;99302.69;4890271;29;9005;-74
2022/05/22 06:34:16;;;;;;;;;10.80;10.80;;;;;21.92;61.61;99312.63;4847291;29;10173;-76
2022/05/22 06:36:52;;;;;;;;;13.20;13.00;;;;;21.67;62.87;99305.91;4854917;29;9007;-73
2022/05/22 06:39:50;;;;;;;;;13.80;13.80;;;;;22.03;61.14;99304.13;4819605;29;8860;-73
2022/05/22 06:42:52;;;;;;;;;13.80;13.40;;;;;21.86;60.05;99305.00;4801814;29;9013;-74
2022/05/22 06:45:53;;;;;;;;;13.60;12.20;;;;;22.25;57.57;99296.78;4788120;29;8886;-74
2022/05/22 06:48:55;;;;;;;;;11.40;10.80;;;;;21.54;60.43;99308.31;4804603;29;8924;-76
2022/05/22 06:52:00;;;;;;;;;13.20;11.80;;;;;21.25;60.28;99304.41;4802341;29;9105;-73
2022/05/22 06:54:59;;;;;;;;;9.20;9.20;;;;;21.11;60.43;99298.91;4804527;29;8870;-73
2022/05/22 06:57:42;;;;;;;;;11.20;9.60;;;;;21.30;60.97;99290.91;5145570;27;13463;-74
2022/05/22 07:00:37;;;;;;;;;10.00;8.60;;;;;20.82;61.23;99299.34;5084321;28;8970;-74
2022/05/22 07:03:24;;;;;;;;;11.00;10.60;;;;;20.59;60.67;99299.53;5083699;28;8848;-75
2022/05/22 07:06:14;;;;;;;;;10.00;10.00;;;;;20.70;57.45;99293.75;5105165;28;8856;-74
2022/05/22 07:09:01;;;;;;;;;9.60;8.60;;;;;20.63;56.71;99291.38;5104655;28;9026;-75
2022/05/22 07:11:41;;;;;;;;;9.80;9.80;;;;;20.53;56.46;99294.50;5099038;28;8848;-73
2022/05/22 07:14:30;;;;;;;;;10.00;9.20;;;;;20.68;56.80;99285.00;5097318;28;8877;-72
2022/05/22 07:17:12;;;;;;;;;8.00;8.00;;;;;20.76;55.49;99281.09;5068647;28;8875;-73
2022/05/22 07:19:56;;;;;;;;;9.00;9.00;;;;;20.70;54.81;99277.84;5050575;28;8839;-74
2022/05/22 07:22:43;;;;;;;;;10.20;10.00;;;;;20.79;54.68;99278.31;5083038;28;9593;-72
2022/05/22 07:25:29;;;;;;;;;10.00;9.20;;;;;20.91;54.62;99281.31;5082452;28;8961;-76
2022/05/22 07:28:09;;;;;;;;;11.00;9.80;;;;;20.72;54.32;99271.56;5049585;28;8832;-76
2022/05/22 07:30:58;;;;;;;;;11.60;9.80;;;;;20.75;55.74;99281.16;5054459;28;9050;-74
2022/05/22 07:33:33;;;;;;;;;9.60;9.60;;;;;21.02;55.17;99279.88;5082683;28;8884;-73
2022/05/22 07:36:18;;;;;;;;;13.40;13.40;;;;;21.26;53.93;99278.75;5049018;28;9594;-73
2022/05/22 07:39:13;;;;;;;;;11.60;9.20;;;;;21.39;51.23;99275.41;5086900;28;8883;-75
2022/05/22 07:41:59;;;;;;;;;7.80;7.80;;;;;21.48;49.88;99267.97;5087197;28;8859;-74
2022/05/22 07:44:47;;;;;;;;;9.60;8.60;;;;;21.66;49.89;99269.69;5105899;28;8882;-73
2022/05/22 07:47:27;;;;;;;;;9.00;8.40;;;;;21.45;48.53;99270.78;5088117;28;8883;-74
2022/05/22 07:50:21;;;;;;;;;10.40;9.40;;;;;21.28;48.46;99266.25;5086082;28;8834;-74
2022/05/22 07:53:02;;;;;;;;;8.60;8.60;;;;;21.42;49.50;99266.47;5103041;28;8888;-74
2022/05/22 07:55:31;;;;;;;;;10.60;9.40;;;;;21.60;49.79;99259.38;5102345;28;8865;-74
2022/05/22 07:58:23;;;;;;;;;8.60;8.00;;;;;22.00;49.85;99263.53;5062703;28;8838;-74
2022/05/22 08:01:03;;;;;;;;;11.00;10.20;;;;;22.10;50.32;99263.03;5048791;28;8863;-74
2022/05/22 08:03:52;;;;;;;;;6.60;6.60;;;;;22.06;51.58;99254.38;5082122;28;8859;-73
2022/05/22 08:06:56;;;;;;;;;13.00;11.00;;;;;22.30;51.64;99262.00;5040411;28;8872;-73
2022/05/22 08:09:45;;;;;;;;;12.40;11.60;;;;;22.25;50.83;99256.94;5000800;28;9004;-73
2022/05/22 08:12:14;;;;;;;;;13.60;11.20;;;;;22.11;51.46;99249.66;5044780;28;8864;-74
2022/05/22 08:14:44;;;;;;;;;11.60;9.40;;;;;21.97;52.16;99246.88;4995370;28;9076;-74
2022/05/22 08:17:15;;;;;;;;;23.60;23.60;;;;;22.01;51.30;99248.44;5027977;28;9049;-75
2022/05/22 08:19:46;;;;;;;;;11.20;10.40;;;;;21.99;51.27;99248.50;5045128;28;8877;-74
2022/05/22 08:22:29;;;;;;;;;8.40;8.40;;;;;22.15;50.79;99240.59;4992093;28;8868;-72
2022/05/22 08:25:29;;;;;;;;;9.80;7.80;;;;;22.31;47.33;99232.69;5008101;28;8867;-74
2022/05/22 08:27:59;;;;;;;;;7.20;7.20;;;;;22.31;46.25;99232.69;5008338;28;8852;-73
2022/05/22 08:30:30;;;;;;;;;7.40;7.40;;;;;22.43;45.89;99233.84;4992268;28;8933;-74
2022/05/22 08:32:58;;;;;;;;;8.80;7.60;;;;;22.27;45.06;99227.63;4992358;28;8871;-74
2022/05/22 08:35:32;;;;;;;;;7.40;7.20;;;;;22.49;44.23;99220.19;5011515;28;8852;-79
2022/05/22 08:38:04;;;;;;;;;6.20;6.20;;;;;22.60;43.28;99210.78;4995740;28;8848;-75
2022/05/22 08:40:45;;;;;;;;;7.00;7.00;;;;;22.69;43.12;99219.13;5043329;28;8845;-73
2022/05/22 08:43:17;;;;;;;;;8.00;7.00;;;;;22.98;41.08;99203.31;5071323;28;8870;-75
2022/05/22 08:45:56;;;;;;;;;7.20;7.20;;;;;23.10;40.20;99207.97;5071436;28;8977;-75
2022/05/22 08:48:33;;;;;;;;;8.40;8.40;;;;;23.16;39.78;99212.09;5088037;28;8838;-74
2022/05/22 08:51:11;;;;;;;;;12.60;11.20;;;;;22.95;38.14;99214.13;5071503;28;8862;-74
2022/05/22 08:53:46;;;;;;;;;7.00;7.00;;;;;23.02;38.16;99207.50;5071767;28;8830;-74
2022/05/22 08:59:32;;;;;;;;;6.80;6.80;;;;;22.88;37.75;99204.78;4992185;28;8846;-75
2022/05/22 09:02:15;;;;;;;;;5.20;5.20;;;;;22.75;37.24;99199.31;5001716;28;8887;-75
2022/05/22 09:04:47;;;;;;;;;3.80;3.80;;;;;23.00;36.42;99193.44;5015674;28;8869;-74
2022/05/22 09:07:36;;;;;;;;;4.60;4.60;;;;;22.82;35.96;99200.69;4943033;28;8980;-74
2022/05/22 09:10:07;;;;;;;;;8.40;6.20;;;;;22.74;36.00;99195.78;5007611;28;9615;-73
2022/05/22 09:13:09;;;;;;;;;5.00;5.00;;;;;22.73;36.90;99199.38;4958739;28;8874;-74
2022/05/22 09:16:06;;;;;;;;;7.00;7.00;;;;;22.95;37.81;99193.72;4932652;28;8862;-76
2022/05/22 09:18:38;;;;;;;;;4.40;3.80;;;;;23.11;36.00;99184.88;4916904;28;8869;-74
2022/05/22 09:21:23;;;;;;;;;5.20;4.20;;;;;23.15;34.96;99189.91;4967125;28;8853;-75
2022/05/22 09:24:02;;;;;;;;;5.20;5.00;;;;;23.30;34.68;99182.00;4952434;28;9665;-74
2022/05/22 09:26:44;;;;;;;;;7.80;7.60;;;;;23.46;35.00;99179.28;4952496;28;8877;-72
2022/05/22 09:29:37;;;;;;;;;5.00;5.00;;;;;23.02;36.79;99185.38;4932784;28;8870;-75
2022/05/22 09:32:19;;;;;;;;;5.20;5.20;;;;;23.00;37.22;99187.28;5006168;28;9084;-75
2022/05/22 09:35:00;;;;;;;;;5.40;5.00;;;;;22.91;37.76;99180.66;5008159;28;8879;-74
2022/05/22 09:37:38;;;;;;;;;7.60;5.80;;;;;23.22;38.07;99171.81;4958896;28;8979;-74
2022/05/22 09:40:22;;;;;;;;;6.40;6.00;;;;;23.44;37.04;99170.53;4990930;28;8866;-76
2022/05/22 09:43:07;;;;;;;;;5.40;4.80;;;;;23.61;35.67;99167.72;5007043;28;8855;-76
2022/05/22 09:45:52;;;;;;;;;6.20;6.00;;;;;23.72;34.91;99167.94;5007081;28;8847;-73
2022/05/22 09:48:56;;;;;;;;;4.60;4.60;;;;;23.87;34.52;99165.31;4990836;28;8886;-73
2022/05/22 09:51:37;;;;;;;;;3.80;3.80;;;;;23.96;33.63;99154.09;4948621;28;8889;-74
2022/05/22 09:54:27;;;;;;;;;4.00;4.00;;;;;23.96;33.76;99153.25;5007714;28;9019;-74
2022/05/22 09:57:28;;;;;;;;;5.20;5.00;;;;;23.79;33.22;99164.94;4990105;28;8848;-73
2022/05/22 10:00:05;;;;;;;;;4.00;4.00;;;;;23.40;33.51;99161.88;5006536;28;8855;-76
2022/05/22 10:02:52;;;;;;;;;3.80;3.80;;;;;23.75;33.92;99162.41;5007485;28;8852;-76
2022/05/22 10:05:34;;;;;;;;;5.20;5.20;;;;;24.01;32.87;99164.47;4991328;28;8867;-75
2022/05/22 10:08:11;;;;;;;;;3.20;3.20;;;;;23.85;33.18;99165.38;5064771;28;9629;-74
2022/05/22 10:10:52;;;;;;;;;5.20;4.20;;;;;23.50;32.66;99156.88;5033531;28;8839;-74
2022/05/22 10:13:39;;;;;;;;;4.60;4.60;;;;;23.52;32.47;99162.97;5049306;28;8868;-74
2022/05/22 10:16:25;;;;;;;;;4.00;4.00;;;;;23.65;32.39;99160.41;5066276;28;8954;-74
2022/05/22 10:19:10;;;;;;;;;5.00;5.00;;;;;23.93;32.93;99160.47;5032732;28;8860;-75
2022/05/22 10:21:48;;;;;;;;;6.00;5.00;;;;;24.17;32.93;99157.22;5049590;28;8893;-74
2022/05/22 10:24:34;;;;;;;;;5.00;5.00;;;;;24.03;33.25;99159.91;5066791;28;9577;-74
2022/05/22 10:27:15;;;;;;;;;5.40;4.20;;;;;24.58;33.31;99150.25;5050293;28;9676;-74
2022/05/22 10:29:51;;;;;;;;;4.40;4.40;;;;;24.80;31.97;99150.56;5106702;28;8856;-74
2022/05/22 10:32:26;;;;;;;;;5.80;5.00;;;;;24.71;31.38;99149.34;5109161;28;8845;-75
2022/05/22 10:34:58;;;;;;;;;5.20;4.80;;;;;24.27;32.38;99163.69;5109613;28;8907;-79
2022/05/22 10:37:33;;;;;;;;;5.60;5.60;;;;;24.39;32.49;99138.06;5093919;28;8893;-74
2022/05/22 10:40:05;;;;;;;;;12.40;10.00;;;;;24.93;32.22;99136.38;5071082;28;8871;-75
2022/05/22 10:42:47;;;;;;;;;4.20;4.20;;;;;25.35;31.74;99130.00;5070394;28;8874;-77
2022/05/22 10:45:24;;;;;;;;;6.80;6.80;;;;;25.77;30.60;99130.66;5088650;28;8869;-75
2022/05/22 10:47:54;;;;;;;;;3.00;3.00;;;;;26.19;29.77;99123.25;5088774;28;8935;-73
2022/05/22 10:50:26;;;;;;;;;4.80;4.20;;;;;26.23;29.81;99118.53;5087766;28;8844;-75
2022/05/22 10:52:56;;;;;;;;;5.00;5.00;;;;;25.81;29.62;99123.28;5088180;28;8874;-75
2022/05/22 10:55:35;;;;;;;;;5.60;5.60;;;;;25.12;30.89;99128.84;5099035;28;9755;-75
2022/05/22 10:58:08;;;;;;;;;5.60;5.00;;;;;25.51;30.97;99128.97;5107498;28;8882;-74
2022/05/22 11:00:38;;;;;;;;;5.80;5.00;;;;;25.83;30.22;99129.38;5109525;28;10150;-74
2022/05/22 11:03:12;;;;;;;;;5.00;5.00;;;;;25.80;30.96;99125.13;5109568;28;8887;-75
2022/05/22 11:05:51;;;;;;;;;5.00;5.00;;;;;26.16;30.06;99123.50;5107433;28;8861;-74
2022/05/22 11:08:28;;;;;;;;;6.00;6.00;;;;;26.54;29.99;99132.34;5107471;28;8868;-73
2022/05/22 11:11:02;;;;;;;;;4.80;4.80;;;;;26.53;29.87;99115.47;5072805;28;8837;-76
2022/05/22 11:13:33;;;;;;;;;7.20;5.80;;;;;26.89;29.55;99116.41;5107355;28;8844;-74
2022/05/22 11:16:16;;;;;;;;;5.00;5.00;;;;;27.17;29.78;99108.97;5089996;28;8853;-73
2022/05/22 11:18:47;;;;;;;;;6.80;6.00;;;;;27.39;28.35;99110.84;5095402;28;8860;-74
2022/05/22 11:21:33;;;;;;;;;7.00;5.00;;;;;27.62;28.75;99117.13;5087028;28;9594;-76
2022/05/22 11:24:26;;;;;;;;;8.00;7.60;;;;;27.81;27.88;99113.84;5089649;28;8848;-74
2022/05/22 11:27:13;;;;;;;;;6.60;6.60;;;;;28.05;28.54;99112.88;5099731;28;8852;-74
2022/05/22 11:30:01;;;;;;;;;7.00;6.00;;;;;27.90;28.23;99105.13;5125918;28;8860;-75
2022/05/22 11:32:52;;;;;;;;;5.40;5.40;;;;;28.23;28.01;99097.16;5123514;28;8853;-77
2022/05/22 11:35:42;;;;;;;;;5.80;5.00;;;;;28.38;27.73;99096.75;5123004;28;8944;-75
2022/05/22 11:38:43;;;;;;;;;6.60;6.60;;;;;28.57;27.33;99098.81;5110460;28;8868;-75
2022/05/22 11:41:22;;;;;;;;;6.60;6.60;;;;;28.52;27.30;99097.47;5108228;28;8918;-79
2022/05/22 11:44:12;;;;;;;;;16.75;16.50;;;;;27.56;28.67;99097.03;5110899;28;8949;-76
2022/05/22 11:46:55;;;;;;;;;6.20;5.00;;;;;27.48;28.63;99094.06;5028472;28;8848;-76
2022/05/22 11:49:34;;;;;;;;;5.00;5.00;;;;;27.72;27.87;99085.09;5009181;28;8878;-78
2022/05/22 11:55:20;;;;;;;;;4.20;4.20;;;;;27.74;27.86;99083.16;4947123;28;8861;-77
2022/05/22 11:58:01;;;;;;;;;3.00;3.00;;;;;27.92;27.18;99089.75;4969797;28;8877;-76
2022/05/22 12:00:37;;;;;;;;;4.00;4.00;;;;;28.03;26.52;99086.19;4970046;28;8881;-74
2022/05/22 12:03:21;;;;;;;;;5.00;4.20;;;;;27.85;25.96;99079.63;4970054;28;8860;-76
2022/05/22 12:06:05;;;;;;;;;4.20;4.00;;;;;27.99;25.90;99085.59;4969695;28;8905;-75
2022/05/22 12:09:08;;;;;;;;;4.00;4.00;;;;;27.97;26.79;99079.50;4970189;28;8849;-77
2022/05/22 12:11:50;;;;;;;;;5.00;4.20;;;;;28.75;25.71;99076.78;4982305;28;8895;-75
2022/05/22 12:14:27;;;;;;;;;2.60;2.60;;;;;29.45;24.24;99071.78;4941400;28;8877;-75
2022/05/22 12:17:03;;;;;;;;;13.75;12.75;;;;;30.14;23.78;99063.06;4973527;28;8980;-74
2022/05/22 12:19:42;;;;;;;;;4.00;4.00;;;;;30.83;22.34;99064.88;4957706;28;8876;-73
2022/05/22 12:22:19;;;;;;;;;3.80;3.80;;;;;30.12;22.70;99062.34;4927476;28;8860;-76
2022/05/22 12:24:54;;;;;;;;;5.00;4.00;;;;;30.48;23.39;99060.03;5053216;28;8836;-75
2022/05/22 12:27:25;;;;;;;;;5.20;5.20;;;;;31.18;22.28;99055.34;5107741;28;8938;-76
2022/05/22 12:30:04;;;;;;;;;2.00;2.00;;;;;31.64;21.12;99052.84;5111674;28;8849;-74
2022/05/22 12:32:40;;;;;;;;;3.80;3.80;;;;;32.13;21.52;99066.97;5111233;28;8861;-76
2022/05/22 12:35:11;;;;;;;;;15.75;15.75;;;;;31.26;22.22;99068.94;5111816;28;8871;-75
2022/05/22 12:37:49;;;;;;;;;5.80;5.80;;;;;32.20;21.21;99049.19;5112124;28;8880;-76
2022/05/22 12:40:33;;;;;;;;;5.60;5.60;;;;;32.63;21.32;99049.50;5050413;28;9466;-75